Terminal Aerodrome Forecast
Issued by NWS

Home | Current Version | Previous Version | Text Only | Print | Product List | Glossary On
Versions: 1 2 3 4 5 6 7 8 9 10 11 12 13 14 15 16 17
953
FTUS43 KMQT 260529
TAFSAW
TAF
KSAW 260529Z 2606/2706 12008KT 5SM -FZRA BR OVC012
     FM260700 12007KT 4SM -FZRA BR OVC008
     FM260900 11005KT 2SM -FZRA BR OVC003
     FM261300 10004KT 1SM -RA BR OVC003
     FM261800 08004KT 3/4SM BR OVC003=

USA.gov is the U.S. government's official web portal to all federal, state and local government web resources and services.